Time;durP1;ratioP1;P1;durP2;ratioP2;P2;SDS_P1;SDS_P2;PMS_P1;PMS_P2;Temp;Humidity;BMP_temperature;BMP_pressure;BME280_temperature;BME280_humidity;BME280_pressure;Samples;Min_cycle;Max_cycle;Signal;HPM_P1;HPM_P2
2021/06/19 00:06:32;;;;;;;8.30;4.03;;;22.10;99.90;;;;;;20818138;28;20042;-48
2021/06/19 00:16:33;;;;;;;6.65;3.40;;;21.90;99.90;;;;;;20814532;28;20081;-48
2021/06/19 00:26:34;;;;;;;10.95;4.25;;;21.80;99.90;;;;;;20813159;28;20108;-48
2021/06/19 00:36:36;;;;;;;8.90;4.40;;;21.90;99.90;;;;;;20821138;28;20041;-48
2021/06/19 00:46:37;;;;;;;12.55;5.65;;;21.80;99.90;;;;;;20813152;28;20306;-48
2021/06/19 00:56:38;;;;;;;8.57;4.75;;;21.80;99.90;;;;;;20813886;28;20195;-48
2021/06/19 01:06:40;;;;;;;7.38;3.50;;;21.80;99.90;;;;;;20808933;28;20055;-48
2021/06/19 01:16:47;;;;;;;8.50;4.05;;;21.70;99.90;;;;;;20808371;28;20184;-48
2021/06/19 01:26:52;;;;;;;8.32;3.90;;;21.60;99.90;;;;;;20734219;28;20042;-48
2021/06/19 01:36:53;;;;;;;7.70;3.60;;;21.50;99.90;;;;;;20729561;28;20519;-48
2021/06/19 01:46:54;;;;;;;10.65;3.75;;;21.40;99.90;;;;;;20728352;28;20668;-48
2021/06/19 01:56:55;;;;;;;5.50;2.70;;;21.30;99.90;;;;;;20730849;28;20049;-48
2021/06/19 02:06:57;;;;;;;6.50;2.92;;;21.20;99.90;;;;;;20727828;28;20065;-48
2021/06/19 02:16:58;;;;;;;8.60;3.63;;;21.20;99.90;;;;;;20744857;28;20545;-47
2021/06/19 02:27:11;;;;;;;10.48;5.50;;;21.10;99.90;;;;;;20735847;28;20045;-48
2021/06/19 02:37:12;;;;;;;13.55;5.38;;;20.60;99.90;;;;;;20741214;28;20053;-49
2021/06/19 02:47:13;;;;;;;15.10;6.63;;;20.40;99.90;;;;;;20737993;28;20049;-48
2021/06/19 02:57:14;;;;;;;17.48;6.53;;;20.20;99.90;;;;;;20739040;28;20041;-48
2021/06/19 03:07:15;;;;;;;18.80;7.57;;;20.00;99.90;;;;;;20812615;28;20398;-48
2021/06/19 03:17:17;;;;;;;25.17;7.07;;;19.70;99.90;;;;;;20774952;28;20045;-49
2021/06/19 03:27:18;;;;;;;19.40;8.13;;;19.60;99.90;;;;;;20814688;28;20059;-48
2021/06/19 03:37:19;;;;;;;22.45;9.07;;;19.50;99.90;;;;;;20812925;28;20674;-50
2021/06/19 03:47:20;;;;;;;22.80;7.75;;;19.20;99.90;;;;;;20813400;28;20566;-50
2021/06/19 03:57:28;;;;;;;24.77;9.95;;;19.00;99.90;;;;;;20814092;28;20435;-48
2021/06/19 04:07:29;;;;;;;20.48;8.52;;;19.00;99.90;;;;;;20814455;28;20420;-50
2021/06/19 04:17:30;;;;;;;24.13;9.93;;;19.00;99.90;;;;;;20812088;28;20045;-50
2021/06/19 04:27:38;;;;;;;35.03;10.18;;;18.90;99.90;;;;;;20808514;28;20409;-50
2021/06/19 04:37:40;;;;;;;26.73;9.30;;;18.90;99.90;;;;;;20805366;28;20429;-49
2021/06/19 04:47:41;;;;;;;29.33;10.90;;;19.00;99.90;;;;;;20805647;28;20357;-48
2021/06/19 04:57:44;;;;;;;21.00;8.10;;;19.10;99.90;;;;;;20807890;28;20390;-48
2021/06/19 05:07:45;;;;;;;18.95;6.53;;;19.20;99.90;;;;;;20809209;28;20525;-48
2021/06/19 05:17:47;;;;;;;14.82;5.15;;;19.30;99.90;;;;;;20810003;28;20515;-49
2021/06/19 05:27:48;;;;;;;15.00;5.78;;;19.40;99.90;;;;;;20807859;28;20454;-48
2021/06/19 05:37:50;;;;;;;13.32;5.75;;;19.30;99.90;;;;;;20781516;28;20399;-48
2021/06/19 05:47:51;;;;;;;13.20;5.43;;;19.40;99.90;;;;;;20733699;28;20966;-48
2021/06/19 05:57:52;;;;;;;14.52;6.35;;;19.50;99.90;;;;;;20804304;28;20712;-48
2021/06/19 06:07:55;;;;;;;13.40;4.68;;;19.60;99.90;;;;;;20826867;28;20053;-50
2021/06/19 06:17:56;;;;;;;8.52;3.45;;;19.40;99.90;;;;;;20794876;28;20684;-48
2021/06/19 06:27:57;;;;;;;7.68;3.20;;;19.60;99.90;;;;;;20810826;28;20041;-48
2021/06/19 06:37:58;;;;;;;11.65;3.78;;;19.40;99.90;;;;;;20821825;28;20050;-48
2021/06/19 06:47:59;;;;;;;7.70;3.50;;;19.40;99.90;;;;;;20813937;28;20053;-48
2021/06/19 06:58:01;;;;;;;5.95;2.92;;;19.40;99.90;;;;;;20826027;28;20519;-49
2021/06/19 07:08:02;;;;;;;8.85;3.67;;;19.40;99.90;;;;;;20820100;28;20495;-48
2021/06/19 07:18:04;;;;;;;17.45;3.35;;;19.30;99.90;;;;;;20777065;28;20052;-51
2021/06/19 07:28:08;;;;;;;10.02;2.67;;;19.30;99.90;;;;;;20812954;28;20075;-49
2021/06/19 07:38:10;;;;;;;9.68;3.58;;;19.30;99.90;;;;;;20816453;28;20045;-49
2021/06/19 07:48:11;;;;;;;9.70;4.00;;;19.40;99.90;;;;;;20828260;28;20071;-48
2021/06/19 07:58:12;;;;;;;3.35;1.25;;;19.40;99.90;;;;;;20826741;28;20567;-50
2021/06/19 08:08:13;;;;;;;2.35;1.30;;;19.10;99.90;;;;;;20815099;28;20489;-50
2021/06/19 08:18:14;;;;;;;3.78;1.58;;;18.80;99.90;;;;;;20829754;28;20989;-51
2021/06/19 08:28:16;;;;;;;2.15;1.13;;;18.70;99.90;;;;;;20824794;28;20050;-48
2021/06/19 08:38:17;;;;;;;2.20;1.08;;;18.70;99.90;;;;;;20824650;28;20496;-50
2021/06/19 08:48:20;;;;;;;4.03;1.95;;;18.50;99.90;;;;;;20826882;28;20442;-49
2021/06/19 08:58:21;;;;;;;4.07;1.83;;;18.50;99.90;;;;;;20817870;28;20417;-50
2021/06/19 09:08:22;;;;;;;4.72;2.38;;;18.30;99.90;;;;;;20817243;28;20555;-47
2021/06/19 09:18:30;;;;;;;5.47;2.53;;;18.30;99.90;;;;;;20816858;28;21190;-51
2021/06/19 09:28:31;;;;;;;6.10;2.88;;;18.20;99.90;;;;;;20804937;28;20622;-51
2021/06/19 09:38:34;;;;;;;5.18;2.95;;;17.90;99.90;;;;;;20796537;28;20053;-48
2021/06/19 09:48:40;;;;;;;6.70;2.75;;;18.00;99.90;;;;;;20835337;28;20056;-48
2021/06/19 09:58:46;;;;;;;5.65;2.55;;;18.00;99.90;;;;;;20833789;28;20472;-48
2021/06/19 10:08:49;;;;;;;6.35;2.95;;;18.20;99.90;;;;;;20834879;28;20037;-49
2021/06/19 10:18:52;;;;;;;6.03;3.05;;;18.30;99.90;;;;;;20826959;28;20484;-49
2021/06/19 10:28:57;;;;;;;5.35;2.38;;;18.30;99.90;;;;;;20801449;28;20072;-49
2021/06/19 10:38:58;;;;;;;4.03;2.17;;;18.20;99.90;;;;;;20810549;28;22124;-48
2021/06/19 10:49:01;;;;;;;5.45;2.45;;;18.20;99.90;;;;;;20826179;28;20566;-49
2021/06/19 10:59:17;;;;;;;5.82;2.72;;;18.30;99.90;;;;;;20819893;28;20521;-49
2021/06/19 11:09:25;;;;;;;5.22;2.45;;;18.50;99.90;;;;;;20823171;28;20048;-50
2021/06/19 11:19:35;;;;;;;4.45;2.50;;;18.30;99.90;;;;;;20816747;28;20505;-51
2021/06/19 11:29:43;;;;;;;5.53;3.35;;;18.40;99.90;;;;;;20811889;28;20073;-48
2021/06/19 11:39:45;;;;;;;4.97;2.50;;;18.40;99.90;;;;;;20808086;28;20037;-49
2021/06/19 11:49:47;;;;;;;5.40;3.30;;;18.50;99.90;;;;;;20810233;28;20596;-49
2021/06/19 12:00:04;;;;;;;6.13;3.45;;;18.70;99.90;;;;;;20817449;28;20053;-48
2021/06/19 12:10:29;;;;;;;4.87;2.87;;;18.90;99.90;;;;;;20809561;28;20091;-48
2021/06/19 12:20:31;;;;;;;4.45;2.40;;;18.80;99.90;;;;;;20815254;28;20864;-48
2021/06/19 12:30:32;;;;;;;9.55;3.22;;;18.70;99.90;;;;;;20822457;28;21033;-48
2021/06/19 12:40:35;;;;;;;9.93;3.47;;;18.50;99.90;;;;;;20821847;28;20673;-48
2021/06/19 12:50:39;;;;;;;5.95;2.90;;;18.70;99.90;;;;;;20812278;28;20048;-48
2021/06/19 13:00:41;;;;;;;9.35;3.70;;;18.70;99.90;;;;;;20810867;28;20053;-48
2021/06/19 13:10:43;;;;;;;9.82;4.43;;;18.70;99.90;;;;;;20820038;28;20041;-49
2021/06/19 13:20:44;;;;;;;7.72;3.95;;;18.80;99.90;;;;;;20817437;28;20472;-48
2021/06/19 13:30:47;;;;;;;11.38;4.70;;;18.90;99.90;;;;;;20814436;28;20042;-48
2021/06/19 13:40:48;;;;;;;6.78;3.45;;;19.10;99.90;;;;;;20811795;28;20041;-48
2021/06/19 13:50:49;;;;;;;4.15;2.15;;;18.90;99.90;;;;;;20812809;28;20041;-48
2021/06/19 14:00:50;;;;;;;9.45;3.53;;;18.80;99.90;;;;;;20805929;28;20064;-48
2021/06/19 14:10:55;;;;;;;7.78;3.00;;;19.00;99.90;;;;;;20839843;28;20057;-48
2021/06/19 14:20:58;;;;;;;5.05;2.47;;;19.00;99.90;;;;;;20851598;28;20493;-48
2021/06/19 14:31:00;;;;;;;7.50;3.15;;;19.30;99.90;;;;;;20848175;28;20610;-48
2021/06/19 14:41:02;;;;;;;7.85;3.05;;;18.90;99.90;;;;;;20851798;28;20701;-49
2021/06/19 14:51:05;;;;;;;7.45;3.45;;;18.90;99.90;;;;;;20826788;28;20107;-48
2021/06/19 15:01:06;;;;;;;11.00;3.95;;;18.80;99.90;;;;;;20836456;28;20041;-48
2021/06/19 15:11:09;;;;;;;8.80;3.22;;;18.90;99.90;;;;;;20845755;28;20049;-48
2021/06/19 15:21:10;;;;;;;7.32;3.38;;;18.90;99.90;;;;;;20815436;28;20042;-47
2021/06/19 15:31:11;;;;;;;5.85;3.08;;;18.80;99.90;;;;;;20832120;28;20408;-48
2021/06/19 15:41:12;;;;;;;9.77;2.75;;;18.70;99.90;;;;;;20823969;28;20059;-48
2021/06/19 15:51:13;;;;;;;5.60;2.85;;;18.60;99.90;;;;;;20820033;28;20041;-48
2021/06/19 16:01:14;;;;;;;8.48;3.58;;;18.80;99.90;;;;;;20823617;28;20464;-48
2021/06/19 16:11:16;;;;;;;5.80;2.75;;;19.10;99.90;;;;;;20820408;28;20698;-48
2021/06/19 16:21:19;;;;;;;6.18;3.38;;;19.00;99.90;;;;;;20799278;28;20034;-48
2021/06/19 16:31:20;;;;;;;5.95;2.75;;;19.10;99.90;;;;;;20740938;28;20046;-47
2021/06/19 16:41:22;;;;;;;8.73;3.05;;;19.20;99.90;;;;;;20742272;28;22047;-47
2021/06/19 16:51:23;;;;;;;7.03;3.20;;;19.40;99.90;;;;;;20740981;28;20481;-48
2021/06/19 17:01:25;;;;;;;10.25;3.00;;;19.00;99.90;;;;;;20748844;28;20124;-47
2021/06/19 17:11:26;;;;;;;6.13;2.83;;;18.70;99.90;;;;;;20744201;28;20382;-48
2021/06/19 17:21:28;;;;;;;7.43;2.65;;;18.90;99.90;;;;;;20751810;28;20054;-48
2021/06/19 17:31:29;;;;;;;7.00;3.60;;;18.90;99.90;;;;;;20734001;28;20046;-47
2021/06/19 17:41:30;;;;;;;10.38;3.58;;;19.00;99.90;;;;;;20742994;28;20034;-47
2021/06/19 17:51:37;;;;;;;5.85;2.90;;;19.00;99.90;;;;;;20750709;28;20123;-48
2021/06/19 18:01:38;;;;;;;7.07;2.93;;;18.90;99.90;;;;;;20757411;28;20488;-48
2021/06/19 18:11:40;;;;;;;8.85;3.25;;;18.90;99.90;;;;;;20748488;28;20076;-48
2021/06/19 18:21:41;;;;;;;6.90;2.92;;;19.10;99.90;;;;;;20746029;28;20553;-48
2021/06/19 18:31:42;;;;;;;8.18;3.40;;;19.00;99.90;;;;;;20736324;28;20531;-48
2021/06/19 18:41:44;;;;;;;5.30;2.67;;;18.90;99.90;;;;;;20746396;28;20485;-48
2021/06/19 18:51:45;;;;;;;5.65;2.95;;;18.70;99.90;;;;;;20739179;28;20596;-48
2021/06/19 19:01:46;;;;;;;6.80;2.70;;;18.70;99.90;;;;;;20732088;28;20046;-48
2021/06/19 19:11:48;;;;;;;6.80;2.88;;;18.70;99.90;;;;;;20744280;28;20512;-48
2021/06/19 19:21:49;;;;;;;4.32;2.38;;;18.60;99.90;;;;;;20743816;28;20049;-48
2021/06/19 19:31:50;;;;;;;7.10;3.08;;;18.50;99.90;;;;;;20739436;28;20053;-48
2021/06/19 19:41:51;;;;;;;7.10;3.28;;;18.40;99.90;;;;;;20740566;28;20493;-48
2021/06/19 19:51:53;;;;;;;10.27;3.95;;;18.40;99.90;;;;;;20730996;28;20525;-48
2021/06/19 20:01:55;;;;;;;7.35;3.03;;;18.30;99.90;;;;;;20734007;28;20056;-48
2021/06/19 20:11:57;;;;;;;8.43;3.28;;;18.20;99.90;;;;;;20731053;28;20041;-48
2021/06/19 20:21:58;;;;;;;9.85;3.65;;;18.00;99.90;;;;;;20730875;28;20045;-48
2021/06/19 20:32:02;;;;;;;11.18;4.07;;;18.10;99.90;;;;;;20734771;28;20489;-48
2021/06/19 20:42:05;;;;;;;9.95;4.35;;;17.90;99.90;;;;;;20730508;28;20053;-48
2021/06/19 20:52:07;;;;;;;9.02;4.60;;;17.90;99.90;;;;;;20761817;28;20046;-49
2021/06/19 21:02:08;;;;;;;15.15;4.90;;;18.00;99.90;;;;;;20813810;28;20516;-49
2021/06/19 21:12:10;;;;;;;11.18;5.05;;;17.90;99.90;;;;;;20822839;28;20052;-49
2021/06/19 21:22:11;;;;;;;7.43;4.10;;;17.90;99.90;;;;;;20818141;28;20041;-49
2021/06/19 21:32:13;;;;;;;10.30;3.97;;;17.80;99.90;;;;;;20839421;28;20037;-49
2021/06/19 21:42:18;;;;;;;6.85;3.53;;;17.90;99.90;;;;;;20843521;28;20472;-48
2021/06/19 21:52:20;;;;;;;8.57;4.03;;;17.90;99.90;;;;;;20827102;28;20523;-49
2021/06/19 22:02:22;;;;;;;12.55;4.70;;;17.90;99.90;;;;;;20831138;28;20053;-48
2021/06/19 22:12:23;;;;;;;13.57;5.22;;;18.00;99.90;;;;;;20838117;28;20073;-48
2021/06/19 22:22:24;;;;;;;9.07;3.97;;;17.90;99.90;;;;;;20838044;28;20045;-48
2021/06/19 22:32:25;;;;;;;7.88;3.53;;;17.90;99.90;;;;;;20841250;28;20615;-48
2021/06/19 22:42:26;;;;;;;8.50;3.60;;;17.90;99.90;;;;;;20822140;28;20049;-51
2021/06/19 22:52:27;;;;;;;7.75;3.50;;;17.90;99.90;;;;;;20809869;28;20530;-50
2021/06/19 23:02:28;;;;;;;9.63;3.58;;;17.30;99.90;;;;;;20820162;28;21084;-49
2021/06/19 23:12:29;;;;;;;10.48;3.75;;;17.00;99.90;;;;;;20824380;28;20056;-49
2021/06/19 23:22:31;;;;;;;10.88;4.00;;;17.00;99.90;;;;;;20821121;28;20192;-49
2021/06/19 23:32:32;;;;;;;12.15;3.75;;;16.80;99.90;;;;;;20814339;28;20489;-48
2021/06/19 23:42:33;;;;;;;9.80;3.10;;;16.90;99.90;;;;;;20819040;28;20366;-48
2021/06/19 23:52:35;;;;;;;6.07;2.38;;;16.80;99.90;;;;;;20818266;28;20532;-48
